createdAt,value
2023-04-30T00:00:48.151Z,99.99
2023-04-30T00:01:48.778Z,99.99
2023-04-30T00:02:48.215Z,99.99
2023-04-30T00:03:48.219Z,99.99
2023-04-30T00:04:48.148Z,99.99
2023-04-30T00:05:48.147Z,99.99
2023-04-30T00:06:48.181Z,99.99
2023-04-30T00:07:48.185Z,99.99
2023-04-30T00:08:48.097Z,99.99
2023-04-30T00:09:48.082Z,99.99
2023-04-30T00:10:48.064Z,99.99
2023-04-30T00:11:48.100Z,99.99
2023-04-30T00:12:48.207Z,99.99
2023-04-30T00:13:48.205Z,99.99
2023-04-30T00:14:48.036Z,99.99
2023-04-30T00:15:48.023Z,99.99
2023-04-30T00:16:48.308Z,99.99
2023-04-30T00:17:48.257Z,99.99
2023-04-30T00:18:48.250Z,99.99
2023-04-30T00:19:48.249Z,99.99
2023-04-30T00:20:48.046Z,99.99
2023-04-30T00:21:48.082Z,99.99
2023-04-30T00:22:48.034Z,99.99
2023-04-30T00:23:47.991Z,99.99
2023-04-30T00:24:48.316Z,99.99
2023-04-30T00:25:48.505Z,99.99
2023-04-30T00:26:48.512Z,99.99
2023-04-30T00:27:48.499Z,99.99
2023-04-30T00:28:48.298Z,99.99
2023-04-30T00:29:48.511Z,99.99
2023-04-30T00:30:48.530Z,99.99
2023-04-30T00:31:48.583Z,99.99
2023-04-30T00:32:48.578Z,99.99
2023-04-30T00:33:47.925Z,99.99
2023-04-30T00:34:47.924Z,99.99
2023-04-30T00:35:47.944Z,99.99
2023-04-30T00:36:47.969Z,99.99
2023-04-30T00:37:47.931Z,99.99
2023-04-30T00:38:47.876Z,99.99
2023-04-30T00:39:47.952Z,99.99
2023-04-30T00:40:48.036Z,99.99
2023-04-30T00:41:48.009Z,99.99
2023-04-30T00:42:48.102Z,99.99
2023-04-30T00:43:48.204Z,99.99
2023-04-30T00:44:47.993Z,99.99
2023-04-30T00:45:47.903Z,99.99
2023-04-30T00:46:47.826Z,99.99
2023-04-30T00:47:47.908Z,99.99
2023-04-30T00:48:47.838Z,99.99
2023-04-30T00:49:47.853Z,99.99
2023-04-30T00:50:47.875Z,99.99
2023-04-30T00:51:47.864Z,99.99
2023-04-30T00:52:47.899Z,99.99
2023-04-30T00:53:48.070Z,99.99
2023-04-30T00:54:48.089Z,99.99
2023-04-30T00:55:48.068Z,99.99
2023-04-30T00:56:48.074Z,99.99
2023-04-30T00:57:48.128Z,99.99
2023-04-30T00:58:47.877Z,99.99
2023-04-30T00:59:48.088Z,99.99
2023-04-30T01:00:47.729Z,99.99
2023-04-30T01:01:48.522Z,99.99
2023-04-30T01:02:48.379Z,99.99
2023-04-30T01:03:47.969Z,99.99
2023-04-30T01:04:48.202Z,99.99
2023-04-30T01:05:48.536Z,99.99
2023-04-30T01:06:48.548Z,99.99
2023-04-30T01:07:47.726Z,99.99
2023-04-30T01:08:47.702Z,99.99
2023-04-30T01:09:47.761Z,99.99
2023-04-30T01:10:47.809Z,99.99
2023-04-30T01:11:47.696Z,99.99
2023-04-30T01:12:48.055Z,99.99
2023-04-30T01:13:48.027Z,99.99
2023-04-30T01:14:47.688Z,99.99
2023-04-30T01:15:47.859Z,99.99
2023-04-30T01:16:48.198Z,99.99
2023-04-30T01:17:47.817Z,99.99
2023-04-30T01:18:48.329Z,99.99
2023-04-30T01:19:47.806Z,99.99
2023-04-30T01:20:47.613Z,99.99
2023-04-30T01:21:48.501Z,99.99
2023-04-30T01:22:47.622Z,99.99
2023-04-30T01:23:48.583Z,99.99
2023-04-30T01:24:48.261Z,99.99
2023-04-30T01:25:47.894Z,99.99
2023-04-30T01:26:48.261Z,99.99
2023-04-30T01:27:48.457Z,99.99
2023-04-30T01:28:48.355Z,99.99
2023-04-30T01:29:47.668Z,99.99
2023-04-30T01:30:47.930Z,99.99
2023-04-30T01:31:48.157Z,99.99
2023-04-30T01:32:48.137Z,99.99
2023-04-30T01:33:47.536Z,99.99
2023-04-30T01:34:47.499Z,99.99
2023-04-30T01:35:47.500Z,99.99
2023-04-30T01:36:47.511Z,99.99
2023-04-30T01:37:47.531Z,99.99
2023-04-30T01:38:47.630Z,99.99
2023-04-30T01:39:47.677Z,99.99
2023-04-30T01:40:47.746Z,99.99
2023-04-30T01:41:47.774Z,99.99
2023-04-30T01:42:47.756Z,99.99
2023-04-30T01:43:47.820Z,99.99
2023-04-30T01:44:47.446Z,99.99
2023-04-30T01:45:48.047Z,99.99
2023-04-30T01:46:48.061Z,99.99
2023-04-30T01:47:47.497Z,99.99
2023-04-30T01:48:47.438Z,99.99
2023-04-30T01:49:47.415Z,99.99
2023-04-30T01:50:47.408Z,99.99
2023-04-30T01:51:47.469Z,99.99
2023-04-30T01:52:47.418Z,99.99
2023-04-30T01:53:47.491Z,99.99
2023-04-30T01:54:47.435Z,99.99
2023-04-30T01:55:47.443Z,99.99
2023-04-30T01:56:47.474Z,99.99
2023-04-30T01:57:47.466Z,99.99
2023-04-30T01:58:47.461Z,99.99
2023-04-30T01:59:47.599Z,99.99
2023-04-30T02:00:47.480Z,99.99
2023-04-30T02:01:47.495Z,99.99
2023-04-30T02:02:47.414Z,99.99
2023-04-30T02:03:47.471Z,99.99
2023-04-30T02:04:47.294Z,99.99
2023-04-30T02:05:47.372Z,99.99
2023-04-30T02:06:47.448Z,99.99
2023-04-30T02:07:47.559Z,99.99
2023-04-30T02:08:47.317Z,99.99
2023-04-30T02:09:47.535Z,99.99
2023-04-30T02:10:47.389Z,99.99
2023-04-30T02:11:47.641Z,99.99
2023-04-30T02:12:47.415Z,99.99
2023-04-30T02:13:47.246Z,99.99
2023-04-30T02:14:47.256Z,99.99
2023-04-30T02:15:47.271Z,99.99
2023-04-30T02:16:47.262Z,99.99
2023-04-30T02:17:47.254Z,99.99
2023-04-30T02:18:47.281Z,99.99
2023-04-30T02:19:47.301Z,99.99
2023-04-30T02:20:47.307Z,99.99
2023-04-30T02:21:47.323Z,99.99
2023-04-30T02:22:47.361Z,99.99
2023-04-30T02:23:47.350Z,99.99
2023-04-30T02:24:47.395Z,99.99
2023-04-30T02:25:47.374Z,99.99
2023-04-30T02:26:47.385Z,99.99
2023-04-30T02:27:47.154Z,99.99
2023-04-30T02:28:47.233Z,99.99
2023-04-30T02:29:47.129Z,99.99
2023-04-30T02:30:47.112Z,99.99
2023-04-30T02:31:47.124Z,99.99
2023-04-30T02:32:47.203Z,99.99
2023-04-30T02:33:47.098Z,99.99
2023-04-30T02:34:47.097Z,99.99
2023-04-30T02:35:47.168Z,99.99
2023-04-30T02:36:47.084Z,99.99
2023-04-30T02:37:47.214Z,99.99
2023-04-30T02:38:47.357Z,99.99
2023-04-30T02:39:47.321Z,99.99
2023-04-30T02:40:47.316Z,99.99
2023-04-30T02:41:47.113Z,99.99
2023-04-30T02:42:47.134Z,99.99
2023-04-30T02:43:47.347Z,99.99
2023-04-30T02:44:47.031Z,99.99
2023-04-30T02:45:47.371Z,99.99
2023-04-30T02:46:47.053Z,99.99
2023-04-30T02:47:47.067Z,99.99
2023-04-30T02:48:47.041Z,99.99
2023-04-30T02:49:47.065Z,99.99
2023-04-30T02:50:47.091Z,99.99
2023-04-30T02:51:47.189Z,99.99
2023-04-30T02:52:47.197Z,99.99
2023-04-30T02:53:47.221Z,99.99
2023-04-30T02:54:47.302Z,99.99
2023-04-30T02:55:47.310Z,99.99
2023-04-30T02:56:47.102Z,99.99
2023-04-30T02:57:47.016Z,99.99
2023-04-30T02:58:47.028Z,99.99
2023-04-30T02:59:46.939Z,99.99
2023-04-30T03:00:46.911Z,99.99
2023-04-30T03:01:47.005Z,99.99
2023-04-30T03:02:47.019Z,99.99
2023-04-30T03:03:46.990Z,99.99
2023-04-30T03:04:46.897Z,99.99
2023-04-30T03:05:47.173Z,99.99
2023-04-30T03:06:47.148Z,99.99
2023-04-30T03:07:46.889Z,99.99
2023-04-30T03:08:47.233Z,99.99
2023-04-30T03:09:47.370Z,99.99
2023-04-30T03:10:47.012Z,99.99
2023-04-30T03:11:46.911Z,99.99
2023-04-30T03:12:46.855Z,99.99
2023-04-30T03:13:47.580Z,99.99
2023-04-30T03:14:47.579Z,99.99
2023-04-30T03:15:47.661Z,99.99
2023-04-30T03:16:47.254Z,99.99
2023-04-30T03:17:47.644Z,99.99
2023-04-30T03:18:46.787Z,99.99
2023-04-30T03:19:47.367Z,99.99
2023-04-30T03:20:47.050Z,99.99
2023-04-30T03:21:47.057Z,99.99
2023-04-30T03:22:47.087Z,99.99
2023-04-30T03:23:47.621Z,99.99
2023-04-30T03:24:47.283Z,99.99
2023-04-30T03:25:47.256Z,99.99
2023-04-30T03:26:47.814Z,99.99
2023-04-30T03:27:47.691Z,99.99
2023-04-30T03:28:47.028Z,99.99
2023-04-30T03:29:47.436Z,99.99
2023-04-30T03:30:47.032Z,99.99
2023-04-30T03:31:47.572Z,99.99
2023-04-30T03:32:46.792Z,99.99
2023-04-30T03:33:46.770Z,99.99
2023-04-30T03:34:46.711Z,99.99
2023-04-30T03:35:47.275Z,99.99
2023-04-30T03:36:46.883Z,99.99
2023-04-30T03:37:46.766Z,99.99
2023-04-30T03:38:46.902Z,99.99
2023-04-30T03:39:47.069Z,99.99
2023-04-30T03:40:46.671Z,99.99
2023-04-30T03:41:46.680Z,99.99
2023-04-30T03:42:47.717Z,99.99
2023-04-30T03:43:46.720Z,99.99
2023-04-30T03:44:46.638Z,99.99
2023-04-30T03:45:46.701Z,99.99
2023-04-30T03:46:46.718Z,99.99
2023-04-30T03:47:46.774Z,99.99
2023-04-30T03:48:46.640Z,99.99
2023-04-30T03:49:46.606Z,99.99
2023-04-30T03:50:46.610Z,99.99
2023-04-30T03:51:46.586Z,99.99
2023-04-30T03:52:46.804Z,99.99
2023-04-30T03:53:46.580Z,99.99
2023-04-30T03:54:46.578Z,99.99
2023-04-30T03:55:46.826Z,99.99
2023-04-30T03:56:46.693Z,99.99
2023-04-30T03:57:46.641Z,99.99
2023-04-30T03:58:47.032Z,99.99
2023-04-30T03:59:46.549Z,99.99
2023-04-30T04:00:46.523Z,99.99
2023-04-30T04:01:46.590Z,99.99
2023-04-30T04:02:46.579Z,99.99
2023-04-30T04:03:46.551Z,99.99
2023-04-30T04:04:46.753Z,99.99
2023-04-30T04:05:46.590Z,99.99
2023-04-30T04:06:46.509Z,99.99
2023-04-30T04:07:46.918Z,99.99
2023-04-30T04:08:46.973Z,99.99
2023-04-30T04:09:47.034Z,99.99
2023-04-30T04:10:46.689Z,99.99
2023-04-30T04:11:47.153Z,99.99
2023-04-30T04:12:47.188Z,99.99
2023-04-30T04:13:46.917Z,99.99
2023-04-30T04:14:46.433Z,99.99
2023-04-30T04:15:46.651Z,99.99
2023-04-30T04:16:46.529Z,99.99
2023-04-30T04:17:46.533Z,99.99
2023-04-30T04:18:46.445Z,99.99
2023-04-30T04:19:46.462Z,99.99
2023-04-30T04:20:46.456Z,99.99
2023-04-30T04:21:46.406Z,99.99
2023-04-30T04:22:46.404Z,99.99
2023-04-30T04:23:46.513Z,99.99
2023-04-30T04:24:46.377Z,99.99
2023-04-30T04:25:46.496Z,99.99
2023-04-30T04:26:47.941Z,99.99
2023-04-30T04:27:46.497Z,99.99
2023-04-30T04:28:46.508Z,99.99
2023-04-30T04:29:46.515Z,99.99
2023-04-30T04:30:46.316Z,99.99
2023-04-30T04:31:46.388Z,99.99
2023-04-30T04:32:46.551Z,99.99
2023-04-30T04:33:46.518Z,99.99
2023-04-30T04:34:46.374Z,99.99
2023-04-30T04:35:46.561Z,99.99
2023-04-30T04:36:46.574Z,99.99
2023-04-30T04:37:46.663Z,99.99
2023-04-30T04:38:46.596Z,99.99
2023-04-30T04:39:46.700Z,99.99
2023-04-30T04:40:46.488Z,99.99
2023-04-30T04:41:46.700Z,99.99
2023-04-30T04:42:46.316Z,99.99
2023-04-30T04:43:46.494Z,99.99
2023-04-30T04:44:46.434Z,99.99
2023-04-30T04:45:46.517Z,99.99
2023-04-30T04:46:46.647Z,99.99
2023-04-30T04:47:46.760Z,99.99
2023-04-30T04:48:46.238Z,99.99
2023-04-30T04:49:46.871Z,99.99
2023-04-30T04:50:46.264Z,99.99
2023-04-30T04:51:46.256Z,99.99
2023-04-30T04:52:46.275Z,99.99
2023-04-30T04:53:46.271Z,99.99
2023-04-30T04:54:46.368Z,99.99
2023-04-30T04:55:46.367Z,99.99
2023-04-30T04:56:46.500Z,99.99
2023-04-30T04:57:46.508Z,99.99
2023-04-30T04:58:46.139Z,99.99
2023-04-30T04:59:46.152Z,99.99
2023-04-30T05:00:46.217Z,99.99
2023-04-30T05:01:46.327Z,99.99
2023-04-30T05:02:46.294Z,99.99
2023-04-30T05:03:46.443Z,99.99
2023-04-30T05:04:46.212Z,99.99
2023-04-30T05:05:46.475Z,99.99
2023-04-30T05:06:46.549Z,99.99
2023-04-30T05:07:46.590Z,99.99
2023-04-30T05:08:46.455Z,99.99
2023-04-30T05:09:46.720Z,99.99
2023-04-30T05:10:46.740Z,99.99
2023-04-30T05:11:46.486Z,99.99
2023-04-30T05:12:46.838Z,99.99
2023-04-30T05:13:46.402Z,99.99
2023-04-30T05:14:46.697Z,99.99
2023-04-30T05:15:47.034Z,99.99
2023-04-30T05:16:47.085Z,99.99
2023-04-30T05:17:46.053Z,99.99
2023-04-30T05:18:46.226Z,99.99
2023-04-30T05:19:46.908Z,99.99
2023-04-30T05:20:46.830Z,99.99
2023-04-30T05:21:46.329Z,99.99
2023-04-30T05:22:46.546Z,99.99
2023-04-30T05:23:46.547Z,99.99
2023-04-30T05:24:46.950Z,99.99
2023-04-30T05:25:46.691Z,99.99
2023-04-30T05:26:46.374Z,99.99
2023-04-30T05:27:45.962Z,99.99
2023-04-30T05:28:45.969Z,99.99
2023-04-30T05:29:45.918Z,99.99
2023-04-30T05:30:45.991Z,99.99
2023-04-30T05:31:46.142Z,99.99
2023-04-30T05:32:46.150Z,99.99
2023-04-30T05:33:46.133Z,99.99
2023-04-30T05:34:46.259Z,99.99
2023-04-30T05:35:46.220Z,99.99
2023-04-30T05:36:46.397Z,99.99
2023-04-30T05:37:46.476Z,99.99
2023-04-30T05:38:45.987Z,99.99
2023-04-30T05:39:46.252Z,99.99
2023-04-30T05:40:46.182Z,99.99
2023-04-30T05:41:46.751Z,99.99
2023-04-30T05:42:46.477Z,99.99
2023-04-30T05:43:46.205Z,99.99
2023-04-30T05:44:45.844Z,99.99
2023-04-30T05:45:46.438Z,99.99
2023-04-30T05:46:45.819Z,99.99
2023-04-30T05:47:46.056Z,99.99
2023-04-30T05:48:45.839Z,99.99
2023-04-30T05:49:45.902Z,99.99
2023-04-30T05:50:45.857Z,99.99
2023-04-30T05:51:45.857Z,99.99
2023-04-30T05:52:45.873Z,99.99
2023-04-30T05:53:46.083Z,99.99
2023-04-30T05:54:46.854Z,99.99
2023-04-30T05:55:46.095Z,99.99
2023-04-30T05:56:45.746Z,99.99
2023-04-30T05:57:45.751Z,99.99
2023-04-30T05:58:45.760Z,99.99
2023-04-30T05:59:45.718Z,99.99
2023-04-30T06:00:45.731Z,99.99
2023-04-30T06:01:45.752Z,99.99
2023-04-30T06:02:45.774Z,99.99
2023-04-30T06:03:45.746Z,99.99
2023-04-30T06:04:45.771Z,99.99
2023-04-30T06:05:46.278Z,99.99
2023-04-30T06:06:46.008Z,99.88
2023-04-30T06:07:45.757Z,99.57
2023-04-30T06:08:45.849Z,98.96
2023-04-30T06:09:45.781Z,98.60
2023-04-30T06:10:45.721Z,98.39
2023-04-30T06:11:45.854Z,97.88
2023-04-30T06:12:45.790Z,97.78
2023-04-30T06:13:45.655Z,97.53
2023-04-30T06:14:47.227Z,97.32
2023-04-30T06:15:45.875Z,97.42
2023-04-30T06:16:45.830Z,97.48
2023-04-30T06:17:45.669Z,97.07
2023-04-30T06:18:45.632Z,96.87
2023-04-30T06:19:45.636Z,96.41
2023-04-30T06:20:45.641Z,96.10
2023-04-30T06:21:45.649Z,95.90
2023-04-30T06:22:45.655Z,95.79
2023-04-30T06:23:45.662Z,95.44
2023-04-30T06:24:45.671Z,94.83
2023-04-30T06:25:45.681Z,94.11
2023-04-30T06:26:45.563Z,93.70
2023-04-30T06:27:45.557Z,93.70
2023-04-30T06:28:45.606Z,93.45
2023-04-30T06:29:45.593Z,93.04
2023-04-30T06:30:45.596Z,93.00
2023-04-30T06:31:45.686Z,92.59
2023-04-30T06:32:45.625Z,92.18
2023-04-30T06:33:45.593Z,91.36
2023-04-30T06:34:45.643Z,91.36
2023-04-30T06:35:45.666Z,91.36
2023-04-30T06:36:45.488Z,91.31
2023-04-30T06:37:45.487Z,91.01
2023-04-30T06:38:45.469Z,91.01
2023-04-30T06:39:45.533Z,90.81
2023-04-30T06:40:45.579Z,90.25
2023-04-30T06:41:45.457Z,89.74
2023-04-30T06:42:46.883Z,89.43
2023-04-30T06:43:45.456Z,89.23
2023-04-30T06:44:45.457Z,88.51
2023-04-30T06:45:45.480Z,88.62
2023-04-30T06:46:45.516Z,88.51
2023-04-30T06:47:46.936Z,88.68
2023-04-30T06:48:45.438Z,87.85
2023-04-30T06:49:45.442Z,87.45
2023-04-30T06:50:45.451Z,87.20
2023-04-30T06:51:45.451Z,86.69
2023-04-30T06:52:45.520Z,86.83
2023-04-30T06:53:45.676Z,87.00
2023-04-30T06:54:45.339Z,86.59
2023-04-30T06:55:45.364Z,86.18
2023-04-30T06:56:45.325Z,86.18
2023-04-30T06:57:45.332Z,86.38
2023-04-30T06:58:45.353Z,86.59
2023-04-30T06:59:45.297Z,86.76
2023-04-30T07:00:45.314Z,86.85
2023-04-30T07:01:45.600Z,85.97
2023-04-30T07:02:45.719Z,86.38
2023-04-30T07:03:45.339Z,87.00
2023-04-30T07:04:45.551Z,86.55
2023-04-30T07:05:45.764Z,86.76
2023-04-30T07:06:45.805Z,86.14
2023-04-30T07:07:45.269Z,85.53
2023-04-30T07:08:45.262Z,85.02
2023-04-30T07:09:45.777Z,85.49
2023-04-30T07:10:45.783Z,85.08
2023-04-30T07:11:45.794Z,85.49
2023-04-30T07:12:45.798Z,85.08
2023-04-30T07:13:45.218Z,85.08
2023-04-30T07:14:45.934Z,84.98
2023-04-30T07:15:45.303Z,85.35
2023-04-30T07:16:45.867Z,85.14
2023-04-30T07:17:45.695Z,84.12
2023-04-30T07:18:45.874Z,83.47
2023-04-30T07:19:45.433Z,83.67
2023-04-30T07:20:45.491Z,82.55
2023-04-30T07:21:45.178Z,83.67
2023-04-30T07:22:45.659Z,83.06
2023-04-30T07:23:45.137Z,83.47
2023-04-30T07:24:45.264Z,84.08
2023-04-30T07:25:45.153Z,83.67
2023-04-30T07:26:45.119Z,83.57
2023-04-30T07:27:45.386Z,83.87
2023-04-30T07:28:45.443Z,83.67
2023-04-30T07:29:45.124Z,83.37
2023-04-30T07:30:45.120Z,83.16
2023-04-30T07:31:45.149Z,83.47
2023-04-30T07:32:45.093Z,83.67
2023-04-30T07:33:45.594Z,83.37
2023-04-30T07:34:45.604Z,83.67
2023-04-30T07:35:45.241Z,82.55
2023-04-30T07:36:45.768Z,83.02
2023-04-30T07:37:45.372Z,82.71
2023-04-30T07:38:45.531Z,82.41
2023-04-30T07:39:45.019Z,82.21
2023-04-30T07:40:45.310Z,82.00
2023-04-30T07:41:45.571Z,81.90
2023-04-30T07:42:45.013Z,81.76
2023-04-30T07:43:44.995Z,81.35
2023-04-30T07:44:45.009Z,81.45
2023-04-30T07:45:45.130Z,81.01
2023-04-30T07:46:45.067Z,80.29
2023-04-30T07:47:45.126Z,80.23
2023-04-30T07:48:45.239Z,80.09
2023-04-30T07:49:45.247Z,79.48
2023-04-30T07:50:45.253Z,78.56
2023-04-30T07:51:45.260Z,79.11
2023-04-30T07:52:45.306Z,79.58
2023-04-30T07:53:44.923Z,79.99
2023-04-30T07:54:44.920Z,78.53
2023-04-30T07:55:44.960Z,77.91
2023-04-30T07:56:44.934Z,77.40
2023-04-30T07:57:44.982Z,78.12
2023-04-30T07:58:44.891Z,78.02
2023-04-30T07:59:45.090Z,78.12
2023-04-30T08:00:45.151Z,78.12
2023-04-30T08:01:46.382Z,77.51
2023-04-30T08:02:45.388Z,78.28
2023-04-30T08:03:45.424Z,78.19
2023-04-30T08:04:44.954Z,77.47
2023-04-30T08:05:44.879Z,78.28
2023-04-30T08:06:45.294Z,78.19
2023-04-30T08:07:45.585Z,78.45
2023-04-30T08:08:45.617Z,77.13
2023-04-30T08:09:45.398Z,78.11
2023-04-30T08:10:45.605Z,77.50
2023-04-30T08:11:45.381Z,78.21
2023-04-30T08:12:45.397Z,78.92
2023-04-30T08:13:45.398Z,78.52
2023-04-30T08:14:45.618Z,77.50
2023-04-30T08:15:44.906Z,78.62
2023-04-30T08:16:45.842Z,77.81
2023-04-30T08:17:44.838Z,77.77
2023-04-30T08:18:45.093Z,78.52
2023-04-30T08:19:45.289Z,77.60
2023-04-30T08:20:45.680Z,77.40
2023-04-30T08:21:45.455Z,77.87
2023-04-30T08:22:44.854Z,75.33
2023-04-30T08:23:44.861Z,75.23
2023-04-30T08:24:45.546Z,75.90
2023-04-30T08:25:44.913Z,76.21
2023-04-30T08:26:44.698Z,75.90
2023-04-30T08:27:44.688Z,75.80
2023-04-30T08:28:44.826Z,75.40
2023-04-30T08:29:44.833Z,75.09
2023-04-30T08:30:44.714Z,74.99
2023-04-30T08:31:44.734Z,73.53
2023-04-30T08:32:44.764Z,73.33
2023-04-30T08:33:44.722Z,73.63
2023-04-30T08:34:44.748Z,73.74
2023-04-30T08:35:45.069Z,73.29
2023-04-30T08:36:44.750Z,72.89
2023-04-30T08:37:44.751Z,72.04
2023-04-30T08:38:44.752Z,71.26
2023-04-30T08:39:44.597Z,72.08
2023-04-30T08:40:51.701Z,73.09
2023-04-30T08:41:44.587Z,70.96
2023-04-30T08:42:44.606Z,71.57
2023-04-30T08:43:44.596Z,71.97
2023-04-30T08:44:44.815Z,71.77
2023-04-30T08:45:45.051Z,72.08
2023-04-30T08:46:44.845Z,71.64
2023-04-30T08:47:44.974Z,72.75
2023-04-30T08:48:44.620Z,72.25
2023-04-30T08:49:44.849Z,72.04
2023-04-30T08:50:45.064Z,72.14
2023-04-30T08:51:45.054Z,70.72
2023-04-30T08:52:45.064Z,70.83
2023-04-30T08:53:44.671Z,69.98
2023-04-30T08:54:44.504Z,70.32
2023-04-30T08:55:45.295Z,70.21
2023-04-30T08:56:44.555Z,70.32
2023-04-30T08:57:44.620Z,71.23
2023-04-30T08:58:44.482Z,70.01
2023-04-30T08:59:44.741Z,69.00
2023-04-30T09:00:44.797Z,68.46
2023-04-30T09:01:44.763Z,68.87
2023-04-30T09:02:45.046Z,69.71
2023-04-30T09:03:45.065Z,69.37
2023-04-30T09:04:44.562Z,69.17
2023-04-30T09:05:45.281Z,68.56
2023-04-30T09:06:44.870Z,70.48
2023-04-30T09:08:01.012Z,70.48
2023-04-30T09:08:44.429Z,71.57
2023-04-30T09:09:44.439Z,69.74
2023-04-30T09:10:44.376Z,70.18
2023-04-30T09:11:44.811Z,70.18
2023-04-30T09:12:44.579Z,71.20
2023-04-30T09:13:44.789Z,69.03
2023-04-30T09:14:44.801Z,69.34
2023-04-30T09:15:45.363Z,70.96
2023-04-30T09:16:45.216Z,70.42
2023-04-30T09:17:47.046Z,70.42
2023-04-30T09:18:44.420Z,69.61
2023-04-30T09:19:44.626Z,70.12
2023-04-30T09:20:44.437Z,69.41
2023-04-30T09:21:44.844Z,69.41
2023-04-30T09:22:45.267Z,69.57
2023-04-30T09:23:44.267Z,70.18
2023-04-30T09:24:44.266Z,69.27
2023-04-30T09:25:44.305Z,67.96
2023-04-30T09:26:44.279Z,68.63
2023-04-30T09:27:44.334Z,67.45
2023-04-30T09:28:44.387Z,68.46
2023-04-30T09:29:44.375Z,67.79
2023-04-30T09:30:44.531Z,68.80
2023-04-30T09:31:44.591Z,68.43
2023-04-30T09:32:44.636Z,69.64
2023-04-30T09:33:44.235Z,71.26
2023-04-30T09:34:44.733Z,71.03
2023-04-30T09:35:44.544Z,70.21
2023-04-30T09:36:44.198Z,68.16
2023-04-30T09:37:44.350Z,68.46
2023-04-30T09:38:44.366Z,69.17
2023-04-30T09:39:44.368Z,67.42
2023-04-30T09:40:44.377Z,66.91
2023-04-30T09:41:44.168Z,67.22
2023-04-30T09:42:44.582Z,67.42
2023-04-30T09:43:44.586Z,66.41
2023-04-30T09:44:44.639Z,65.47
2023-04-30T09:45:44.702Z,66.47
2023-04-30T09:46:44.919Z,66.17
2023-04-30T09:47:44.851Z,65.47
2023-04-30T09:48:44.150Z,67.42
2023-04-30T09:49:44.424Z,66.98
2023-04-30T09:50:44.629Z,66.38
2023-04-30T09:51:44.871Z,66.58
2023-04-30T09:52:45.053Z,67.39
2023-04-30T09:53:44.948Z,67.76
2023-04-30T09:54:44.244Z,67.63
2023-04-30T09:55:44.261Z,65.91
2023-04-30T09:56:44.063Z,66.92
2023-04-30T09:57:44.078Z,65.78
2023-04-30T09:58:44.093Z,65.98
2023-04-30T09:59:44.150Z,66.55
2023-04-30T10:00:44.232Z,64.73
2023-04-30T10:01:44.312Z,65.47
2023-04-30T10:02:44.402Z,65.17
2023-04-30T10:03:44.463Z,66.08
2023-04-30T10:04:44.499Z,66.18
2023-04-30T10:05:44.562Z,66.08
2023-04-30T10:06:44.447Z,64.53
2023-04-30T10:07:44.132Z,64.16
2023-04-30T10:08:43.986Z,63.81
2023-04-30T10:09:43.957Z,64.58
2023-04-30T10:10:44.065Z,66.61
2023-04-30T10:11:43.950Z,67.42
2023-04-30T10:12:43.975Z,67.59
2023-04-30T10:13:43.974Z,67.79
2023-04-30T10:14:43.973Z,67.72
2023-04-30T10:15:43.988Z,66.52
2023-04-30T10:16:44.055Z,64.46
2023-04-30T10:17:44.083Z,65.34
2023-04-30T10:18:44.000Z,65.75
2023-04-30T10:19:46.491Z,64.20
2023-04-30T10:20:44.009Z,63.70
2023-04-30T10:21:44.059Z,63.82
2023-04-30T10:22:44.075Z,64.50
2023-04-30T10:23:43.944Z,63.19
2023-04-30T10:24:43.890Z,63.16
2023-04-30T10:25:43.920Z,61.75
2023-04-30T10:26:43.869Z,62.55
2023-04-30T10:27:43.878Z,61.44
2023-04-30T10:28:44.123Z,62.25
2023-04-30T10:29:44.116Z,61.04
2023-04-30T10:30:44.198Z,60.26
2023-04-30T10:31:44.272Z,62.45
2023-04-30T10:32:43.846Z,62.18
2023-04-30T10:33:43.779Z,62.28
2023-04-30T10:34:43.823Z,62.99
2023-04-30T10:35:43.800Z,62.38
2023-04-30T10:36:43.860Z,63.09
2023-04-30T10:37:43.753Z,62.28
2023-04-30T10:38:43.822Z,62.18
2023-04-30T10:39:43.749Z,60.97
2023-04-30T10:40:43.847Z,63.56
2023-04-30T10:41:43.741Z,62.45
2023-04-30T10:42:43.878Z,61.61
2023-04-30T10:43:43.889Z,61.56
2023-04-30T10:44:43.757Z,59.72
2023-04-30T10:45:43.876Z,60.09
2023-04-30T10:46:43.819Z,58.35
2023-04-30T10:47:43.816Z,58.22
2023-04-30T10:48:43.792Z,58.09
2023-04-30T10:49:43.790Z,58.87
2023-04-30T10:50:45.956Z,56.16
2023-04-30T10:51:43.802Z,56.46
2023-04-30T10:52:43.641Z,56.66
2023-04-30T10:53:43.636Z,57.64
2023-04-30T10:54:43.645Z,58.14
2023-04-30T10:55:43.656Z,56.41
2023-04-30T10:56:43.674Z,55.20
2023-04-30T10:57:43.779Z,54.63
2023-04-30T10:58:43.779Z,56.31
2023-04-30T10:59:43.658Z,57.24
2023-04-30T11:00:44.912Z,57.15
2023-04-30T11:01:43.912Z,56.84
2023-04-30T11:02:44.220Z,57.42
2023-04-30T11:03:43.925Z,56.89
2023-04-30T11:04:44.226Z,56.96
2023-04-30T11:05:44.145Z,57.24
2023-04-30T11:06:45.071Z,56.23
2023-04-30T11:07:43.916Z,56.23
2023-04-30T11:08:44.135Z,54.13
2023-04-30T11:09:44.213Z,55.30
2023-04-30T11:10:44.173Z,54.27
2023-04-30T11:11:44.172Z,54.52
2023-04-30T11:12:43.734Z,52.37
2023-04-30T11:13:43.754Z,53.39
2023-04-30T11:14:43.747Z,51.69
2023-04-30T11:15:44.253Z,53.17
2023-04-30T11:16:43.976Z,54.55
2023-04-30T11:17:44.263Z,51.25
2023-04-30T11:18:43.817Z,52.24
2023-04-30T11:19:44.214Z,52.17
2023-04-30T11:20:44.004Z,51.97
2023-04-30T11:21:44.236Z,52.29
2023-04-30T11:22:43.440Z,54.35
2023-04-30T11:23:43.489Z,54.22
2023-04-30T11:24:43.548Z,53.82
2023-04-30T11:25:43.455Z,54.15
2023-04-30T11:26:43.420Z,54.60
2023-04-30T11:27:43.411Z,54.87
2023-04-30T11:28:43.408Z,52.84
2023-04-30T11:29:43.710Z,51.52
2023-04-30T11:30:43.658Z,51.34
2023-04-30T11:31:43.462Z,52.57
2023-04-30T11:32:44.843Z,53.74
2023-04-30T11:33:43.381Z,51.52
2023-04-30T11:34:43.360Z,51.20
2023-04-30T11:35:43.373Z,52.49
2023-04-30T11:36:44.594Z,52.17
2023-04-30T11:37:43.355Z,51.79
2023-04-30T11:38:43.367Z,52.89
2023-04-30T11:39:43.772Z,51.67
2023-04-30T11:40:44.137Z,52.17
2023-04-30T11:41:44.149Z,52.19
2023-04-30T11:42:46.047Z,52.39
2023-04-30T11:43:43.741Z,52.64
2023-04-30T11:44:43.382Z,52.62
2023-04-30T11:45:43.391Z,49.22
2023-04-30T11:46:44.355Z,50.12
2023-04-30T11:47:43.575Z,49.44
2023-04-30T11:48:43.842Z,50.45
2023-04-30T11:49:43.650Z,50.87
2023-04-30T11:50:43.787Z,50.89
2023-04-30T11:51:43.272Z,50.24
2023-04-30T11:52:43.261Z,50.76
2023-04-30T11:53:43.279Z,50.54
2023-04-30T11:54:43.247Z,51.97
2023-04-30T11:55:43.376Z,52.74
2023-04-30T11:56:44.679Z,50.96
2023-04-30T11:57:43.486Z,50.69
2023-04-30T11:58:43.243Z,51.69
2023-04-30T11:59:43.224Z,52.09
2023-04-30T12:00:43.203Z,52.39
2023-04-30T12:01:43.225Z,52.29
2023-04-30T12:02:43.953Z,51.49
2023-04-30T12:03:43.962Z,51.79
2023-04-30T12:04:43.185Z,51.74
2023-04-30T12:05:43.163Z,48.92
2023-04-30T12:06:43.337Z,50.82
2023-04-30T12:07:43.270Z,50.89
2023-04-30T12:08:43.129Z,50.89
2023-04-30T12:09:43.428Z,50.49
2023-04-30T12:10:43.523Z,49.32
2023-04-30T12:11:44.588Z,50.54
2023-04-30T12:12:43.115Z,52.34
2023-04-30T12:13:43.114Z,51.82
2023-04-30T12:14:43.919Z,51.12
2023-04-30T12:15:43.135Z,50.92
2023-04-30T12:16:43.828Z,50.32
2023-04-30T12:17:43.185Z,50.52
2023-04-30T12:18:43.358Z,51.20
2023-04-30T12:19:43.068Z,49.79
2023-04-30T12:20:43.111Z,50.17
2023-04-30T12:21:43.062Z,49.49
2023-04-30T12:22:43.043Z,48.87
2023-04-30T12:23:43.107Z,49.07
2023-04-30T12:24:43.034Z,48.64
2023-04-30T12:25:43.079Z,50.67
2023-04-30T12:26:43.143Z,51.27
2023-04-30T12:27:43.205Z,50.64
2023-04-30T12:28:43.277Z,51.54
2023-04-30T12:29:43.329Z,51.44
2023-04-30T12:30:43.026Z,51.57
2023-04-30T12:31:43.104Z,50.94
2023-04-30T12:32:43.136Z,50.64
2023-04-30T12:33:43.428Z,51.25
2023-04-30T12:34:43.653Z,51.14
2023-04-30T12:35:43.741Z,51.84
2023-04-30T12:36:42.962Z,52.55
2023-04-30T12:37:42.942Z,53.17
2023-04-30T12:38:42.954Z,52.34
2023-04-30T12:39:42.951Z,51.74
2023-04-30T12:40:42.965Z,51.34
2023-04-30T12:41:42.912Z,51.79
2023-04-30T12:42:42.919Z,52.27
2023-04-30T12:43:42.918Z,51.27
2023-04-30T12:44:42.977Z,51.09
2023-04-30T12:45:43.108Z,50.49
2023-04-30T12:46:43.042Z,51.09
2023-04-30T12:47:43.054Z,50.82
2023-04-30T12:48:43.011Z,51.62
2023-04-30T12:49:43.042Z,51.54
2023-04-30T12:50:42.971Z,53.74
2023-04-30T12:51:42.859Z,50.84
2023-04-30T12:52:45.090Z,51.07